Time;durP1;ratioP1;P1;durP2;ratioP2;P2;SDS_P1;SDS_P2;PMS_P1;PMS_P2;Temp;Humidity;BMP_temperature;BMP_pressure;BME280_temperature;BME280_humidity;BME280_pressure;Samples;Min_cycle;Max_cycle;Signal;HPM_P1;HPM_P2
2021/09/27 01:22:48;;;;;;;5.25;2.50;;;33.40;64.20;;;;;;5148445;27;21374;-68
2021/09/27 01:25:52;;;;;;;7.80;2.10;;;33.50;40.80;;;;;;5120053;27;20095;-66
2021/09/27 01:28:35;;;;;;;5.25;2.42;;;;;;;;;;5148336;27;20097;-64
2021/09/27 01:31:53;;;;;;;9.77;3.17;;;32.80;51.80;;;;;;5177021;27;20422;-66
2021/09/27 01:34:33;;;;;;;12.50;5.28;;;32.80;41.50;;;;;;5148607;27;20090;-66
2021/09/27 01:37:50;;;;;;;12.10;5.22;;;32.70;41.20;;;;;;5151478;27;20074;-65
2021/09/27 01:40:44;;;;;;;10.73;5.80;;;32.60;41.30;;;;;;5145555;27;20133;-65
2021/09/27 01:43:21;;;;;;;15.63;6.57;;;32.50;41.10;;;;;;5167208;27;20077;-65
2021/09/27 01:46:25;;;;;;;14.25;6.68;;;32.40;41.70;;;;;;5147402;27;20136;-64
2021/09/27 01:49:04;;;;;;;19.85;9.98;;;32.30;41.20;;;;;;5173385;27;20140;-65
2021/09/27 01:52:03;;;;;;;18.15;10.80;;;32.20;41.10;;;;;;5190982;27;20174;-65
2021/09/27 01:54:43;;;;;;;21.48;13.88;;;32.10;42.00;;;;;;5109095;28;20769;-67
2021/09/27 01:57:38;;;;;;;22.38;14.77;;;32.10;42.00;;;;;;5126327;28;20079;-64
2021/09/27 02:00:14;;;;;;;20.58;13.10;;;32.00;42.70;;;;;;5127277;28;20096;-64
2021/09/27 02:02:47;;;;;;;19.23;10.38;;;31.80;43.00;;;;;;5109914;28;20068;-65
2021/09/27 02:05:23;;;;;;;16.77;9.57;;;31.80;43.50;;;;;;5108761;28;20434;-65
2021/09/27 02:08:02;;;;;;;24.83;10.03;;;31.70;43.80;;;;;;5124385;28;20072;-66
2021/09/27 02:10:51;;;;;;;22.13;10.85;;;31.60;43.60;;;;;;5115108;28;20628;-64
2021/09/27 02:13:54;;;;;;;14.90;8.38;;;31.30;55.60;;;;;;5107409;28;20118;-65
2021/09/27 02:16:55;;;;;;;15.15;7.05;;;31.50;43.40;;;;;;5109522;28;20557;-66
2021/09/27 02:19:45;;;;;;;16.15;6.50;;;31.40;43.80;;;;;;5028640;28;20084;-62
2021/09/27 02:22:33;;;;;;;16.05;6.78;;;31.30;44.50;;;;;;5044298;28;20085;-64
2021/09/27 02:25:33;;;;;;;17.55;8.10;;;31.20;44.20;;;;;;5044176;28;20082;-65
2021/09/27 02:28:04;;;;;;;14.80;8.13;;;31.20;44.40;;;;;;5043213;28;20096;-64
2021/09/27 02:30:55;;;;;;;16.17;7.43;;;31.20;44.60;;;;;;5046377;28;20151;-64
2021/09/27 02:34:00;;;;;;;18.27;6.50;;;31.10;45.10;;;;;;5030377;28;20108;-64
2021/09/27 02:36:35;;;;;;;15.18;4.38;;;31.00;45.30;;;;;;5059770;28;20081;-65
2021/09/27 02:39:24;;;;;;;12.32;5.20;;;31.00;44.80;;;;;;5091511;28;20092;-66
2021/09/27 02:42:03;;;;;;;24.65;5.13;;;30.90;46.30;;;;;;5090773;28;20554;-65
2021/09/27 02:44:30;;;;;;;21.90;4.57;;;30.90;47.10;;;;;;5057223;28;20121;-66
2021/09/27 02:46:57;;;;;;;14.52;4.55;;;30.80;46.40;;;;;;5073531;28;20100;-64
2021/09/27 02:49:31;;;;;;;15.93;4.45;;;30.60;46.40;;;;;;5090411;28;20417;-64
2021/09/27 02:52:02;;;;;;;13.77;3.97;;;30.70;51.90;;;;;;5090712;28;20528;-65
2021/09/27 02:54:39;;;;;;;13.18;3.88;;;30.60;47.60;;;;;;5153392;27;20080;-65
2021/09/27 02:57:21;;;;;;;15.60;4.15;;;30.20;47.20;;;;;;5138670;27;20059;-65
2021/09/27 03:00:16;;;;;;;25.55;4.63;;;30.40;70.00;;;;;;5155277;27;20031;-65
2021/09/27 03:02:43;;;;;;;16.27;4.43;;;;;;;;;;5158276;27;20093;-64
2021/09/27 03:05:22;;;;;;;15.27;4.78;;;30.50;55.40;;;;;;5175893;27;20105;-64
2021/09/27 03:08:03;;;;;;;17.67;4.57;;;30.20;67.00;;;;;;5138771;27;20047;-65
2021/09/27 03:10:51;;;;;;;24.35;5.28;;;30.30;49.10;;;;;;5156182;27;20097;-64
2021/09/27 03:13:42;;;;;;;17.65;4.93;;;29.30;80.30;;;;;;5155778;27;20460;-64
2021/09/27 03:16:39;;;;;;;23.30;4.72;;;30.60;72.60;;;;;;5154798;27;20029;-63
2021/09/27 03:19:43;;;;;;;16.25;5.22;;;30.20;47.50;;;;;;5140645;27;20123;-64
2021/09/27 03:22:57;;;;;;;21.33;5.15;;;30.10;46.50;;;;;;5155088;27;20103;-65
2021/09/27 03:25:45;;;;;;;16.35;4.97;;;30.10;82.40;;;;;;5148939;27;20075;-65
2021/09/27 03:28:23;;;;;;;22.67;5.35;;;30.00;49.50;;;;;;5155439;27;20110;-67
2021/09/27 03:31:14;;;;;;;18.42;5.47;;;29.90;83.50;;;;;;5155445;27;20061;-68
2021/09/27 03:33:56;;;;;;;17.90;5.72;;;29.70;73.60;;;;;;5138653;27;20033;-65
2021/09/27 03:36:50;;;;;;;21.38;6.28;;;30.20;49.50;;;;;;5156362;27;20068;-66
2021/09/27 03:39:47;;;;;;;25.95;6.22;;;29.80;49.90;;;;;;5156356;27;20525;-68
2021/09/27 03:42:20;;;;;;;19.85;5.97;;;29.80;49.60;;;;;;5172300;27;20087;-65
2021/09/27 03:45:15;;;;;;;24.13;6.53;;;29.80;49.40;;;;;;5153434;27;20071;-68
2021/09/27 03:48:12;;;;;;;29.05;8.38;;;29.80;49.10;;;;;;5072221;28;20081;-66
2021/09/27 03:50:49;;;;;;;27.05;9.25;;;29.80;49.00;;;;;;5087834;28;20089;-66
2021/09/27 03:53:54;;;;;;;27.55;9.70;;;29.70;49.50;;;;;;5072142;28;20133;-67
2021/09/27 03:56:24;;;;;;;30.90;9.77;;;29.70;49.00;;;;;;5048044;28;20081;-66
2021/09/27 03:59:08;;;;;;;25.27;10.27;;;29.70;49.30;;;;;;5031394;28;20093;-66
2021/09/27 04:02:01;;;;;;;33.60;10.45;;;29.70;50.60;;;;;;5032639;28;20093;-66
2021/09/27 04:04:42;;;;;;;35.13;10.80;;;29.60;50.40;;;;;;5049170;28;20092;-66
2021/09/27 04:07:46;;;;;;;29.02;9.23;;;29.60;50.90;;;;;;5050391;28;20105;-65
2021/09/27 04:10:25;;;;;;;33.63;8.82;;;29.60;50.80;;;;;;4958911;28;20092;-67
2021/09/27 04:13:19;;;;;;;44.22;9.23;;;29.50;50.70;;;;;;4951869;28;20095;-65
2021/09/27 04:16:05;;;;;;;50.15;10.02;;;29.50;52.00;;;;;;4952679;28;20103;-65
2021/09/27 04:18:41;;;;;;;47.40;9.87;;;29.40;51.00;;;;;;4953178;28;20087;-63
2021/09/27 04:21:26;;;;;;;48.63;12.98;;;29.50;50.60;;;;;;4952570;28;20115;-58
2021/09/27 04:24:33;;;;;;;63.83;13.27;;;29.40;49.50;;;;;;4958410;28;20122;-66
2021/09/27 04:27:13;;;;;;;49.70;11.07;;;29.40;49.30;;;;;;4912449;29;20073;-67
2021/09/27 04:30:32;;;;;;;41.28;9.15;;;29.40;50.20;;;;;;4913195;29;20112;-66
2021/09/27 04:33:21;;;;;;;35.13;8.73;;;29.50;51.20;;;;;;4971417;28;20079;-65
2021/09/27 04:36:22;;;;;;;28.83;6.60;;;29.40;52.10;;;;;;4973291;28;20075;-67
2021/09/27 04:38:53;;;;;;;30.05;6.00;;;29.20;53.50;;;;;;4989712;28;20079;-65
2021/09/27 04:41:22;;;;;;;34.90;5.57;;;29.20;54.10;;;;;;4989433;28;20179;-66
2021/09/27 04:44:14;;;;;;;19.92;4.85;;;29.20;54.50;;;;;;4989508;28;20441;-64
2021/09/27 04:47:08;;;;;;;25.17;5.15;;;29.20;55.30;;;;;;5000685;28;20125;-65
2021/09/27 04:49:53;;;;;;;16.05;3.90;;;29.10;55.10;;;;;;5030735;28;20077;-65
2021/09/27 04:53:09;;;;;;;19.90;4.03;;;29.10;55.40;;;;;;5048496;28;20085;-65
2021/09/27 04:56:00;;;;;;;24.42;4.22;;;29.00;55.80;;;;;;4992037;28;20085;-66
2021/09/27 04:58:46;;;;;;;27.38;4.18;;;29.00;56.00;;;;;;5037652;28;20486;-66
2021/09/27 05:01:55;;;;;;;14.45;3.67;;;29.00;56.20;;;;;;5019778;28;20097;-67
2021/09/27 05:04:59;;;;;;;17.70;4.07;;;28.90;56.50;;;;;;5068388;28;20076;-65
2021/09/27 05:07:53;;;;;;;20.00;3.55;;;28.80;56.70;;;;;;5067959;28;20077;-66
2021/09/27 05:10:44;;;;;;;13.43;3.55;;;28.80;57.00;;;;;;5067765;28;20142;-65
2021/09/27 05:13:27;;;;;;;13.73;3.80;;;28.80;57.70;;;;;;5068407;28;20092;-66
2021/09/27 05:16:09;;;;;;;11.55;3.40;;;28.70;57.20;;;;;;5068367;28;20562;-63
2021/09/27 05:19:09;;;;;;;21.00;3.38;;;28.70;57.60;;;;;;5051675;28;20156;-64
2021/09/27 05:22:10;;;;;;;17.13;2.92;;;28.70;57.70;;;;;;5068181;28;20117;-64
2021/09/27 05:25:03;;;;;;;14.02;3.35;;;28.60;58.00;;;;;;5036708;28;20205;-63
2021/09/27 05:27:58;;;;;;;11.05;3.15;;;28.50;58.30;;;;;;5049440;28;20097;-64
2021/09/27 05:30:48;;;;;;;12.48;1.90;;;28.40;58.70;;;;;;5032471;28;20150;-63
2021/09/27 05:33:32;;;;;;;12.50;3.08;;;28.40;58.80;;;;;;5053525;28;20168;-65
2021/09/27 05:36:33;;;;;;;13.80;3.03;;;28.40;59.00;;;;;;5047798;28;20091;-64
2021/09/27 05:39:31;;;;;;;8.65;2.60;;;28.30;59.10;;;;;;5057904;28;20088;-66
2021/09/27 05:42:17;;;;;;;9.80;3.10;;;28.30;59.50;;;;;;5050121;28;20082;-66
2021/09/27 05:44:52;;;;;;;14.50;3.15;;;28.30;59.80;;;;;;5036699;28;20142;-64
2021/09/27 05:47:27;;;;;;;7.60;3.03;;;28.30;60.10;;;;;;5050711;28;20476;-65
2021/09/27 05:50:07;;;;;;;7.95;2.35;;;28.00;59.60;;;;;;5056231;28;20085;-64
2021/09/27 05:53:11;;;;;;;14.50;2.83;;;28.10;59.50;;;;;;5032987;28;20082;-64
2021/09/27 05:55:45;;;;;;;6.60;2.05;;;27.60;91.30;;;;;;5040511;28;20076;-65
2021/09/27 05:58:53;;;;;;;9.68;3.22;;;28.10;65.10;;;;;;5051040;28;20025;-64
2021/09/27 06:01:45;;;;;;;8.25;2.53;;;28.10;60.50;;;;;;5079863;27;20510;-64
2021/09/27 06:04:11;;;;;;;10.50;2.50;;;28.10;60.40;;;;;;5172728;27;20074;-64
2021/09/27 06:06:51;;;;;;;9.38;3.42;;;28.00;60.50;;;;;;5153272;27;20075;-64
2021/09/27 06:09:38;;;;;;;12.80;2.95;;;28.00;60.80;;;;;;5175727;27;20078;-65
2021/09/27 06:12:33;;;;;;;8.38;3.17;;;28.00;60.80;;;;;;5174833;27;20544;-65
2021/09/27 06:15:03;;;;;;;10.05;3.95;;;28.00;61.00;;;;;;5154033;27;20124;-64
2021/09/27 06:18:00;;;;;;;10.60;3.97;;;28.00;60.90;;;;;;5139990;27;20078;-64
2021/09/27 06:21:11;;;;;;;14.35;4.80;;;28.00;61.00;;;;;;5133866;27;20103;-64
2021/09/27 06:23:59;;;;;;;13.82;3.83;;;28.10;60.70;;;;;;5156729;27;20075;-64
2021/09/27 06:26:31;;;;;;;11.85;3.53;;;28.10;60.80;;;;;;5148607;27;20528;-67
2021/09/27 06:32:04;;;;;;;13.65;2.80;;;27.60;71.80;;;;;;5114768;27;20469;-62
2021/09/27 06:34:52;;;;;;;19.88;3.28;;;28.00;61.40;;;;;;5107067;28;20150;-61
2021/09/27 06:37:22;;;;;;;11.35;2.70;;;28.00;61.40;;;;;;5107808;28;20076;-62
2021/09/27 06:39:50;;;;;;;15.65;2.85;;;27.50;79.50;;;;;;5107069;28;20080;-63
2021/09/27 06:42:19;;;;;;;18.35;2.60;;;28.00;88.20;;;;;;5106484;28;20445;-65
2021/09/27 06:44:46;;;;;;;13.77;2.20;;;27.90;62.30;;;;;;5108575;28;20095;-63
2021/09/27 06:47:14;;;;;;;8.35;2.40;;;27.90;62.20;;;;;;5108490;28;20221;-65
2021/09/27 06:49:41;;;;;;;10.95;2.50;;;27.90;62.30;;;;;;5104391;28;20080;-64
2021/09/27 06:52:08;;;;;;;8.23;2.60;;;27.80;62.40;;;;;;5103264;28;20072;-64
2021/09/27 06:54:35;;;;;;;11.10;2.33;;;27.80;62.70;;;;;;5103280;28;20073;-64
2021/09/27 06:57:01;;;;;;;6.50;2.63;;;27.80;62.70;;;;;;5105141;28;20065;-65
2021/09/27 06:59:28;;;;;;;10.80;2.97;;;27.80;62.80;;;;;;5103092;28;20105;-63
2021/09/27 07:01:54;;;;;;;14.73;3.85;;;27.80;63.00;;;;;;5087380;28;20076;-66
2021/09/27 07:04:20;;;;;;;15.55;4.22;;;27.70;63.00;;;;;;5107585;28;20444;-64
2021/09/27 07:06:47;;;;;;;18.48;4.50;;;27.70;63.20;;;;;;5104673;28;20472;-65
2021/09/27 07:09:14;;;;;;;20.63;5.13;;;27.70;63.50;;;;;;5103948;28;20121;-63
2021/09/27 07:11:42;;;;;;;19.27;4.68;;;27.60;63.80;;;;;;5101451;28;20145;-64
2021/09/27 07:14:09;;;;;;;17.60;5.13;;;27.60;64.10;;;;;;5106661;28;20069;-63
2021/09/27 07:16:36;;;;;;;20.27;5.45;;;27.60;64.40;;;;;;5104756;28;20900;-65
2021/09/27 07:19:05;;;;;;;15.45;5.32;;;27.60;64.30;;;;;;5104128;28;20110;-65
2021/09/27 07:21:33;;;;;;;15.93;5.47;;;27.60;64.90;;;;;;5103946;28;20437;-65
2021/09/27 07:23:59;;;;;;;14.05;4.30;;;27.50;64.30;;;;;;5103815;28;20145;-65
2021/09/27 07:26:27;;;;;;;17.63;5.03;;;27.50;65.10;;;;;;5102966;28;20046;-64
2021/09/27 07:28:56;;;;;;;14.90;4.78;;;27.50;65.30;;;;;;5104628;28;20077;-64
2021/09/27 07:31:28;;;;;;;20.52;5.00;;;27.50;65.20;;;;;;5101759;28;20168;-65
2021/09/27 07:33:55;;;;;;;23.20;4.72;;;27.50;65.50;;;;;;5071559;28;20547;-65
2021/09/27 07:36:22;;;;;;;12.95;4.70;;;27.50;66.20;;;;;;5105834;28;20078;-66
2021/09/27 07:38:48;;;;;;;18.35;4.70;;;27.70;72.10;;;;;;5103875;28;20069;-64
2021/09/27 07:41:14;;;;;;;12.55;3.72;;;27.50;66.30;;;;;;5100238;28;20118;-64
2021/09/27 07:43:41;;;;;;;13.77;4.40;;;27.50;66.00;;;;;;5090650;28;20073;-64
2021/09/27 07:46:08;;;;;;;12.32;5.20;;;27.70;66.30;;;;;;5073210;28;20572;-65
2021/09/27 07:48:34;;;;;;;107.95;69.50;;;27.50;65.50;;;;;;5094885;28;20051;-63
2021/09/27 07:51:01;;;;;;;13.48;9.38;;;28.40;64.90;;;;;;5090048;28;20079;-63
2021/09/27 07:53:28;;;;;;;14.35;4.47;;;29.70;60.60;;;;;;5090878;28;20066;-62
2021/09/27 07:55:54;;;;;;;9.18;4.30;;;30.20;58.80;;;;;;5093675;28;20091;-61
2021/09/27 07:58:21;;;;;;;17.38;3.65;;;31.00;56.80;;;;;;5090725;28;20088;-63
2021/09/27 08:00:50;;;;;;;15.98;3.95;;;31.40;55.40;;;;;;5089611;28;20092;-62
2021/09/27 08:03:18;;;;;;;14.38;4.20;;;31.50;54.50;;;;;;5088759;28;20527;-63
2021/09/27 08:05:44;;;;;;;10.48;4.20;;;31.40;54.70;;;;;;5089792;28;20088;-64
2021/09/27 08:08:11;;;;;;;15.18;3.92;;;31.40;54.30;;;;;;5094100;28;20098;-62
2021/09/27 08:10:40;;;;;;;10.75;4.18;;;31.60;54.40;;;;;;5085214;28;20541;-63
2021/09/27 08:13:07;;;;;;;9.77;3.72;;;31.60;54.70;;;;;;5073561;28;20088;-62
2021/09/27 08:15:37;;;;;;;10.98;4.05;;;31.60;54.50;;;;;;5088832;28;20480;-62
2021/09/27 08:18:06;;;;;;;22.27;4.50;;;31.70;53.90;;;;;;5073073;28;20091;-63
2021/09/27 08:20:37;;;;;;;15.27;4.10;;;31.70;53.70;;;;;;5088191;28;20104;-64
2021/09/27 08:23:04;;;;;;;16.95;4.68;;;31.70;53.90;;;;;;5071958;28;20069;-62
2021/09/27 08:25:31;;;;;;;12.60;3.78;;;31.50;54.60;;;;;;5074218;28;20550;-64
2021/09/27 08:28:00;;;;;;;13.98;3.90;;;31.60;54.00;;;;;;5086792;28;20076;-61
2021/09/27 08:30:31;;;;;;;11.65;3.65;;;31.50;54.60;;;;;;5074088;28;20131;-62
2021/09/27 08:32:59;;;;;;;13.60;4.20;;;31.50;54.70;;;;;;5088903;28;20557;-64
2021/09/27 08:35:27;;;;;;;12.25;4.07;;;31.40;55.00;;;;;;5089820;28;20565;-61
2021/09/27 08:37:54;;;;;;;14.18;4.35;;;31.40;54.90;;;;;;5088090;28;20159;-62
2021/09/27 08:40:47;;;;;;;16.02;4.93;;;31.20;55.00;;;;;;5092919;28;20092;-60
2021/09/27 08:43:32;;;;;;;14.95;5.22;;;31.10;55.00;;;;;;5089711;28;20592;-65
2021/09/27 08:46:08;;;;;;;14.63;5.60;;;31.00;55.40;;;;;;5091541;28;20089;-61
2021/09/27 08:48:49;;;;;;;12.85;4.88;;;31.10;55.20;;;;;;5073932;28;20102;-60
2021/09/27 08:51:16;;;;;;;18.30;5.05;;;31.00;55.10;;;;;;5072546;28;20496;-63
2021/09/27 08:53:48;;;;;;;16.92;5.55;;;30.80;55.70;;;;;;5089186;28;20171;-62
2021/09/27 08:56:27;;;;;;;16.60;5.30;;;30.70;55.90;;;;;;5089530;28;20080;-64
2021/09/27 08:59:10;;;;;;;17.15;5.25;;;30.10;57.00;;;;;;5087963;28;20069;-62
2021/09/27 09:01:58;;;;;;;12.32;4.75;;;29.90;58.00;;;;;;5088549;28;20165;-64
2021/09/27 09:04:38;;;;;;;14.52;5.05;;;29.70;58.50;;;;;;5074464;28;20149;-62
2021/09/27 09:07:09;;;;;;;16.33;4.55;;;29.60;58.90;;;;;;5089453;28;20079;-63
2021/09/27 09:09:54;;;;;;;18.50;4.97;;;29.40;59.50;;;;;;5088305;28;20514;-63
2021/09/27 09:12:38;;;;;;;12.93;4.30;;;29.10;60.40;;;;;;5083654;28;20574;-63
2021/09/27 09:15:14;;;;;;;17.80;4.82;;;28.90;61.50;;;;;;5086945;28;20069;-61
2021/09/27 09:17:59;;;;;;;14.18;4.70;;;29.10;61.80;;;;;;5086185;28;20120;-63
2021/09/27 09:20:51;;;;;;;10.07;4.28;;;29.20;61.20;;;;;;5087983;28;20090;-63
2021/09/27 09:23:25;;;;;;;15.13;4.93;;;29.00;61.60;;;;;;5089725;28;20161;-63
2021/09/27 09:25:52;;;;;;;12.75;4.88;;;29.00;62.10;;;;;;5089377;28;20081;-60
2021/09/27 09:28:18;;;;;;;17.60;5.28;;;29.10;61.50;;;;;;5089176;28;20164;-60
2021/09/27 09:30:53;;;;;;;16.08;5.07;;;29.30;61.50;;;;;;5087971;28;20104;-65
2021/09/27 09:33:40;;;;;;;12.10;5.32;;;29.30;61.90;;;;;;5088062;28;20080;-62
2021/09/27 09:36:10;;;;;;;15.57;5.18;;;29.10;61.60;;;;;;5087144;28;20088;-59
2021/09/27 09:38:38;;;;;;;16.85;4.53;;;29.10;61.80;;;;;;5087091;28;20081;-60
2021/09/27 09:41:06;;;;;;;12.65;4.78;;;28.90;62.60;;;;;;5087980;28;20093;-63
2021/09/27 09:43:35;;;;;;;16.45;5.10;;;28.90;63.30;;;;;;5085913;28;20555;-63
2021/09/27 09:46:09;;;;;;;12.52;4.72;;;28.90;62.70;;;;;;5068753;28;20096;-64
2021/09/27 09:48:40;;;;;;;12.00;4.60;;;28.70;63.60;;;;;;5087485;28;20075;-60
2021/09/27 09:51:33;;;;;;;18.45;4.75;;;28.70;64.10;;;;;;5089909;28;20088;-63
2021/09/27 09:54:22;;;;;;;11.52;4.85;;;28.70;64.20;;;;;;5071798;28;20594;-62
2021/09/27 09:57:05;;;;;;;12.30;4.63;;;28.90;63.60;;;;;;5087542;28;20089;-61
2021/09/27 09:59:52;;;;;;;13.88;4.70;;;29.00;63.70;;;;;;5088756;28;20076;-64
2021/09/27 10:02:22;;;;;;;17.77;4.68;;;28.90;63.80;;;;;;5085980;28;20069;-63
2021/09/27 10:04:56;;;;;;;21.45;5.00;;;28.60;63.50;;;;;;5085918;28;20112;-63
2021/09/27 10:07:36;;;;;;;16.75;5.22;;;28.30;64.50;;;;;;5086393;28;20759;-63
2021/09/27 10:10:09;;;;;;;19.17;5.53;;;28.20;65.50;;;;;;5085200;28;20145;-62
2021/09/27 10:12:46;;;;;;;12.65;5.65;;;28.50;64.90;;;;;;5084774;28;20585;-65
2021/09/27 10:15:34;;;;;;;17.98;5.03;;;28.70;64.10;;;;;;5087358;28;20092;-61
2021/09/27 10:18:17;;;;;;;13.23;5.22;;;28.70;63.70;;;;;;5085366;28;20449;-64
2021/09/27 10:20:59;;;;;;;17.67;5.68;;;28.60;63.40;;;;;;5086941;28;20104;-63
2021/09/27 10:23:37;;;;;;;17.92;5.70;;;28.70;63.50;;;;;;5086119;28;20164;-63
2021/09/27 10:26:14;;;;;;;15.63;5.75;;;28.60;63.70;;;;;;5086358;28;20100;-63
2021/09/27 10:28:41;;;;;;;11.52;5.97;;;28.40;63.90;;;;;;5088804;28;20069;-62
2021/09/27 10:31:10;;;;;;;20.58;8.30;;;28.10;64.80;;;;;;5089725;28;20108;-63
2021/09/27 10:34:07;;;;;;;26.75;9.65;;;27.90;65.60;;;;;;5087727;28;20104;-64
2021/09/27 10:36:41;;;;;;;20.25;9.20;;;27.90;66.20;;;;;;5087515;28;20081;-64
2021/09/27 10:39:11;;;;;;;30.33;9.27;;;28.00;66.40;;;;;;5086348;28;20168;-64
2021/09/27 10:42:00;;;;;;;19.48;8.02;;;28.00;66.30;;;;;;5083783;28;20077;-62
2021/09/27 10:44:32;;;;;;;13.75;5.85;;;27.80;66.60;;;;;;5086872;28;20076;-63
2021/09/27 10:47:10;;;;;;;12.10;6.00;;;27.70;66.50;;;;;;5068977;28;20092;-63
2021/09/27 10:49:49;;;;;;;14.82;6.10;;;27.60;67.50;;;;;;5069322;28;20076;-63
2021/09/27 10:52:22;;;;;;;15.43;6.80;;;27.50;67.20;;;;;;5084260;28;20121;-63
2021/09/27 10:55:12;;;;;;;22.13;6.60;;;27.50;67.80;;;;;;5087855;28;20069;-64
2021/09/27 10:57:48;;;;;;;22.23;7.70;;;27.60;67.00;;;;;;5088515;28;20081;-66
2021/09/27 11:00:29;;;;;;;14.80;8.13;;;27.70;66.90;;;;;;5086608;28;20457;-63
2021/09/27 11:03:08;;;;;;;21.55;8.85;;;27.70;67.30;;;;;;5086626;28;20077;-62
2021/09/27 11:05:54;;;;;;;20.08;7.75;;;27.50;67.50;;;;;;5069714;28;20075;-62
2021/09/27 11:08:45;;;;;;;16.80;6.40;;;27.40;67.30;;;;;;5087955;28;20100;-63
2021/09/27 11:11:30;;;;;;;20.40;5.43;;;27.40;67.60;;;;;;5086328;28;20092;-63
2021/09/27 11:14:17;;;;;;;15.05;5.90;;;27.40;67.10;;;;;;5085935;28;20435;-65
2021/09/27 11:16:46;;;;;;;15.05;6.40;;;27.30;67.10;;;;;;5086827;28;20068;-61
2021/09/27 11:19:37;;;;;;;13.43;5.63;;;27.30;67.20;;;;;;5088423;28;20466;-63
2021/09/27 11:22:20;;;;;;;16.17;5.88;;;27.20;67.60;;;;;;5092033;28;20087;-62
2021/09/27 11:25:20;;;;;;;14.02;6.13;;;27.20;67.60;;;;;;5088568;28;20081;-63
2021/09/27 11:28:03;;;;;;;15.23;5.65;;;27.20;68.40;;;;;;5089507;28;20076;-62
2021/09/27 11:31:06;;;;;;;14.63;5.13;;;27.20;68.50;;;;;;5090253;28;20107;-63
2021/09/27 11:33:33;;;;;;;16.85;5.68;;;27.10;68.20;;;;;;5089551;28;20088;-62
2021/09/27 11:36:13;;;;;;;15.07;5.90;;;27.10;68.40;;;;;;5092914;28;20521;-63
2021/09/27 11:38:48;;;;;;;13.95;5.28;;;27.10;68.40;;;;;;5090366;28;20065;-63
2021/09/27 11:41:15;;;;;;;16.85;6.03;;;26.90;69.20;;;;;;5098983;28;20587;-64
2021/09/27 11:44:04;;;;;;;15.35;5.15;;;26.70;69.80;;;;;;5090775;28;20158;-62
2021/09/27 11:46:41;;;;;;;12.18;5.18;;;26.60;70.10;;;;;;5089916;28;20104;-63
2021/09/27 11:49:28;;;;;;;17.00;4.80;;;26.50;70.60;;;;;;5090155;28;20076;-63
2021/09/27 11:52:08;;;;;;;15.85;4.88;;;26.30;70.80;;;;;;5090863;28;21001;-63
2021/09/27 11:54:38;;;;;;;9.75;3.88;;;26.30;71.00;;;;;;5090100;28;20084;-62
2021/09/27 11:57:10;;;;;;;14.60;3.90;;;26.40;70.80;;;;;;5088367;28;20084;-65
2021/09/27 11:59:41;;;;;;;14.00;4.05;;;26.40;70.30;;;;;;5088864;28;20701;-63
2021/09/27 12:02:29;;;;;;;7.00;3.28;;;26.40;70.10;;;;;;5089914;28;20088;-63
2021/09/27 12:04:59;;;;;;;7.72;4.03;;;26.40;70.30;;;;;;5071514;28;20072;-64
2021/09/27 12:07:38;;;;;;;13.00;3.60;;;26.30;70.10;;;;;;5091243;28;20096;-63
2021/09/27 12:10:14;;;;;;;5.40;3.00;;;26.30;70.10;;;;;;5058261;28;20476;-63
2021/09/27 12:12:52;;;;;;;6.47;3.42;;;26.30;70.40;;;;;;5089922;28;20488;-62
2021/09/27 12:15:27;;;;;;;7.90;3.45;;;26.50;69.90;;;;;;5090718;28;20087;-63
2021/09/27 12:17:53;;;;;;;12.63;3.42;;;26.50;69.90;;;;;;5088057;28;20080;-63
2021/09/27 12:20:25;;;;;;;6.88;3.33;;;26.50;69.80;;;;;;5088722;28;20179;-62
2021/09/27 12:23:01;;;;;;;8.52;3.42;;;26.30;70.10;;;;;;5088742;28;20115;-63
2021/09/27 12:25:34;;;;;;;6.03;2.90;;;26.20;70.50;;;;;;5087991;28;20076;-64
2021/09/27 12:28:07;;;;;;;5.72;3.40;;;26.30;70.90;;;;;;5088231;28;20082;-63
2021/09/27 12:30:39;;;;;;;5.85;2.92;;;26.20;70.60;;;;;;5073543;28;20112;-63
2021/09/27 12:33:13;;;;;;;10.02;3.55;;;26.20;71.20;;;;;;5090592;28;20074;-63
2021/09/27 12:35:44;;;;;;;10.15;3.78;;;26.30;70.80;;;;;;5071489;28;20472;-63
2021/09/27 12:38:11;;;;;;;3.67;2.75;;;26.20;70.80;;;;;;5072521;28;20587;-64
2021/09/27 12:40:43;;;;;;;9.80;3.30;;;26.20;71.20;;;;;;5089762;28;20145;-64
2021/09/27 12:43:15;;;;;;;6.35;2.92;;;26.20;71.20;;;;;;5091152;28;20076;-61
2021/09/27 12:45:48;;;;;;;12.85;3.55;;;26.20;71.30;;;;;;5089542;28;20088;-60
2021/09/27 12:48:28;;;;;;;11.80;3.33;;;26.20;71.40;;;;;;5089956;28;20573;-63
2021/09/27 12:51:22;;;;;;;11.50;4.10;;;26.10;71.60;;;;;;5073229;28;20149;-64
2021/09/27 12:54:06;;;;;;;14.73;4.65;;;26.10;72.10;;;;;;5089113;28;20109;-63
2021/09/27 12:56:33;;;;;;;18.52;5.70;;;26.00;72.20;;;;;;5089671;28;20068;-61
2021/09/27 12:59:05;;;;;;;20.17;5.63;;;25.90;72.50;;;;;;5086433;28;20076;-64
2021/09/27 13:01:37;;;;;;;18.85;5.55;;;25.70;73.10;;;;;;5087058;28;20104;-62
2021/09/27 13:04:43;;;;;;;15.38;5.30;;;25.70;73.40;;;;;;5087666;28;20077;-63
2021/09/27 13:07:14;;;;;;;11.73;5.07;;;25.70;73.50;;;;;;5077768;28;20080;-62
2021/09/27 13:10:15;;;;;;;16.42;4.72;;;25.80;73.60;;;;;;5089224;28;20104;-62
2021/09/27 13:12:58;;;;;;;15.75;4.90;;;25.80;74.10;;;;;;5073696;28;20076;-62
2021/09/27 13:15:42;;;;;;;14.85;5.63;;;25.90;73.60;;;;;;5091347;28;20523;-63
2021/09/27 13:18:38;;;;;;;18.55;5.50;;;25.90;74.00;;;;;;5072612;28;20077;-62
2021/09/27 13:21:23;;;;;;;13.85;4.85;;;26.00;74.10;;;;;;5088664;28;20076;-61
2021/09/27 13:23:52;;;;;;;21.27;6.15;;;26.00;74.00;;;;;;5088170;28;20482;-63
2021/09/27 13:26:42;;;;;;;12.57;5.13;;;26.00;74.40;;;;;;5088427;28;20065;-61
2021/09/27 13:29:39;;;;;;;15.23;5.30;;;25.90;74.60;;;;;;5088265;28;20080;-61
2021/09/27 13:32:29;;;;;;;19.25;5.45;;;25.90;75.00;;;;;;5088315;28;20140;-62
2021/09/27 13:34:57;;;;;;;14.50;5.68;;;25.90;74.90;;;;;;5088147;28;20103;-62
2021/09/27 13:37:41;;;;;;;18.20;6.05;;;25.90;75.20;;;;;;5089656;28;20082;-61
2021/09/27 13:40:31;;;;;;;23.80;5.35;;;25.80;75.40;;;;;;5074035;28;20095;-63
2021/09/27 13:43:19;;;;;;;13.60;5.45;;;25.80;75.60;;;;;;5087652;28;20167;-61
2021/09/27 13:45:48;;;;;;;13.02;5.10;;;25.90;75.70;;;;;;5072132;28;20181;-62
2021/09/27 13:48:15;;;;;;;16.92;5.93;;;26.00;75.60;;;;;;5090550;28;20073;-62
2021/09/27 13:50:44;;;;;;;22.98;5.80;;;26.00;75.80;;;;;;5088408;28;20088;-62
2021/09/27 13:53:31;;;;;;;14.98;5.70;;;26.00;75.80;;;;;;5087238;28;20075;-62
2021/09/27 13:56:01;;;;;;;17.95;5.65;;;26.00;76.00;;;;;;5069981;28;20065;-62
2021/09/27 13:58:27;;;;;;;18.67;5.38;;;26.00;76.20;;;;;;5088541;28;20187;-61
2021/09/27 14:00:54;;;;;;;21.17;6.22;;;26.00;76.00;;;;;;5085912;28;20173;-63
2021/09/27 14:03:20;;;;;;;25.48;5.85;;;26.00;76.30;;;;;;5088313;28;20073;-63
2021/09/27 14:05:47;;;;;;;26.75;6.25;;;26.00;76.40;;;;;;5089056;28;20175;-63
2021/09/27 14:08:17;;;;;;;20.63;5.95;;;26.10;77.00;;;;;;5086174;28;20170;-61
2021/09/27 14:10:46;;;;;;;25.90;6.53;;;26.00;76.80;;;;;;5089214;28;20167;-60
2021/09/27 14:13:15;;;;;;;31.30;7.15;;;26.10;77.30;;;;;;5087930;28;20083;-60
2021/09/27 14:15:44;;;;;;;20.73;6.82;;;26.00;77.30;;;;;;5088809;28;20084;-61
2021/09/27 14:18:11;;;;;;;23.98;7.10;;;26.10;77.40;;;;;;5087917;28;20067;-61
2021/09/27 14:20:38;;;;;;;27.15;7.28;;;26.10;77.90;;;;;;5087679;28;20076;-62
2021/09/27 14:23:06;;;;;;;30.17;7.70;;;26.10;78.60;;;;;;5087889;28;20187;-62
2021/09/27 14:25:32;;;;;;;35.83;7.78;;;26.20;78.40;;;;;;5070666;28;20685;-62
2021/09/27 14:27:59;;;;;;;33.42;8.60;;;26.10;78.90;;;;;;5087636;28;20442;-62
2021/09/27 14:30:26;;;;;;;28.52;7.60;;;26.10;78.80;;;;;;5087307;28;20112;-62
2021/09/27 14:32:53;;;;;;;27.80;7.25;;;26.20;79.70;;;;;;5071846;28;20068;-61
2021/09/27 14:35:20;;;;;;;34.03;7.40;;;26.20;79.60;;;;;;5087896;28;20719;-62
2021/09/27 14:37:48;;;;;;;23.13;6.35;;;26.20;79.10;;;;;;5090624;28;20120;-64
2021/09/27 14:40:18;;;;;;;26.02;7.20;;;26.30;79.50;;;;;;5088983;28;20077;-62
2021/09/27 14:42:45;;;;;;;27.92;6.00;;;26.30;79.80;;;;;;5088908;28;20073;-61
2021/09/27 14:45:12;;;;;;;31.30;6.57;;;26.40;79.70;;;;;;5088498;28;20201;-61
2021/09/27 14:47:40;;;;;;;20.83;6.50;;;26.40;80.10;;;;;;5070761;28;20076;-61
2021/09/27 14:50:10;;;;;;;16.17;5.60;;;26.50;80.60;;;;;;5087523;28;20911;-62
2021/09/27 14:52:36;;;;;;;16.63;4.85;;;26.60;80.70;;;;;;5090986;28;20076;-61
2021/09/27 14:55:05;;;;;;;22.77;5.93;;;26.60;80.50;;;;;;5091396;28;20073;-63
2021/09/27 14:57:31;;;;;;;16.83;5.57;;;26.70;80.20;;;;;;5091370;28;20080;-64
2021/09/27 14:59:57;;;;;;;24.35;5.22;;;26.70;79.30;;;;;;5093962;28;20541;-63
2021/09/27 15:02:24;;;;;;;17.08;5.40;;;26.80;79.20;;;;;;5068569;28;20103;-63
2021/09/27 15:04:50;;;;;;;19.45;6.05;;;26.80;78.30;;;;;;5091894;28;20545;-62